createdAt,value
2022-11-29T00:01:39.286Z,17.05
2022-11-29T00:04:06.394Z,15.88
2022-11-29T00:06:34.785Z,16.33
2022-11-29T00:09:08.299Z,14.75
2022-11-29T00:11:56.204Z,16.33
2022-11-29T00:16:55.303Z,14.20
2022-11-29T00:19:24.723Z,16.73
2022-11-29T00:21:54.077Z,16.45
2022-11-29T00:26:55.171Z,15.65
2022-11-29T00:29:21.907Z,16.25
2022-11-29T00:31:48.667Z,14.65
2022-11-29T00:34:15.720Z,16.67
2022-11-29T00:36:42.442Z,15.45
2022-11-29T00:39:12.417Z,16.40
2022-11-29T00:41:42.225Z,15.80
2022-11-29T00:44:16.791Z,14.27
2022-11-29T00:46:51.878Z,14.73
2022-11-29T00:49:18.595Z,15.63
2022-11-29T00:51:45.906Z,15.43
2022-11-29T00:54:12.757Z,14.95
2022-11-29T00:56:39.715Z,13.82
2022-11-29T00:59:08.846Z,16.30
2022-11-29T01:01:37.846Z,15.05
2022-11-29T01:04:07.184Z,13.23
2022-11-29T01:06:36.414Z,13.88
2022-11-29T01:09:03.778Z,15.93
2022-11-29T01:11:33.237Z,13.38
2022-11-29T01:16:32.422Z,11.95
2022-11-29T01:19:01.454Z,14.25
2022-11-29T01:21:28.587Z,13.80
2022-11-29T01:23:55.624Z,15.18
2022-11-29T01:26:25.426Z,13.10
2022-11-29T01:28:54.061Z,14.63
2022-11-29T01:31:32.193Z,14.10
2022-11-29T01:34:02.223Z,14.10
2022-11-29T01:36:29.564Z,14.82
2022-11-29T01:38:59.234Z,13.75
2022-11-29T01:41:28.250Z,14.38
2022-11-29T01:43:59.929Z,12.30
2022-11-29T01:46:32.074Z,13.50
2022-11-29T01:49:20.336Z,14.20
2022-11-29T01:52:04.074Z,13.55
2022-11-29T01:54:32.461Z,12.90
2022-11-29T01:57:02.616Z,12.30
2022-11-29T01:59:32.139Z,12.10
2022-11-29T02:02:12.512Z,12.52
2022-11-29T02:04:44.162Z,11.90
2022-11-29T02:07:13.947Z,12.60
2022-11-29T02:09:40.701Z,12.70
2022-11-29T02:12:33.435Z,12.93
2022-11-29T02:15:06.956Z,13.10
2022-11-29T02:18:12.793Z,13.30
2022-11-29T02:21:07.485Z,11.68
2022-11-29T02:23:52.494Z,11.90
2022-11-29T02:26:28.173Z,11.85
2022-11-29T02:29:32.037Z,12.50
2022-11-29T02:32:20.602Z,11.40
2022-11-29T02:35:00.714Z,11.40
2022-11-29T02:37:50.948Z,11.65
2022-11-29T02:40:57.218Z,10.18
2022-11-29T02:43:42.137Z,11.60
2022-11-29T02:46:11.818Z,10.10
2022-11-29T02:48:58.052Z,11.35
2022-11-29T02:51:50.877Z,11.13
2022-11-29T02:54:29.929Z,11.18
2022-11-29T02:57:02.182Z,11.80
2022-11-29T02:59:59.670Z,10.15
2022-11-29T03:02:43.422Z,12.55
2022-11-29T03:05:09.902Z,10.65
2022-11-29T03:07:51.978Z,12.55
2022-11-29T03:10:38.159Z,11.13
2022-11-29T03:13:20.271Z,11.00
2022-11-29T03:16:23.355Z,11.27
2022-11-29T03:18:56.247Z,10.52
2022-11-29T03:21:22.769Z,11.63
2022-11-29T03:24:02.162Z,12.57
2022-11-29T03:26:40.718Z,11.40
2022-11-29T03:29:16.198Z,12.05
2022-11-29T03:31:52.817Z,12.80
2022-11-29T03:34:52.993Z,11.23
2022-11-29T03:37:57.786Z,10.38
2022-11-29T03:40:48.869Z,11.25
2022-11-29T03:43:37.223Z,11.00
2022-11-29T03:46:12.543Z,11.98
2022-11-29T03:49:01.545Z,11.70
2022-11-29T03:51:54.669Z,10.13
2022-11-29T03:54:43.218Z,11.27
2022-11-29T03:57:14.069Z,10.43
2022-11-29T04:00:10.896Z,11.70
2022-11-29T04:02:37.422Z,9.68
2022-11-29T04:05:31.011Z,9.25
2022-11-29T04:08:07.313Z,11.30
2022-11-29T04:11:12.100Z,11.15
2022-11-29T04:13:53.479Z,10.80
2022-11-29T04:16:25.302Z,11.02
2022-11-29T04:19:21.061Z,12.25
2022-11-29T04:22:14.658Z,11.30
2022-11-29T04:25:02.377Z,9.20
2022-11-29T04:27:38.711Z,10.02
2022-11-29T04:30:13.939Z,12.15
2022-11-29T04:33:17.876Z,10.85
2022-11-29T04:36:28.916Z,12.75
2022-11-29T04:39:26.580Z,12.05
2022-11-29T04:42:11.766Z,12.32
2022-11-29T04:45:19.235Z,11.77
2022-11-29T04:48:04.085Z,11.98
2022-11-29T04:50:58.162Z,14.38
2022-11-29T04:56:28.494Z,11.82
2022-11-29T04:59:10.050Z,13.95
2022-11-29T05:02:08.644Z,13.23
2022-11-29T05:04:55.457Z,12.02
2022-11-29T05:07:31.502Z,12.55
2022-11-29T05:10:03.657Z,12.82
2022-11-29T05:12:38.749Z,12.05
2022-11-29T05:15:35.177Z,14.43
2022-11-29T05:18:42.068Z,13.95
2022-11-29T05:21:20.527Z,13.07
2022-11-29T05:24:20.109Z,12.65
2022-11-29T05:27:15.294Z,12.35
2022-11-29T05:30:11.346Z,13.23
2022-11-29T05:32:56.943Z,11.43
2022-11-29T05:35:47.866Z,10.93
2022-11-29T05:38:40.500Z,10.77
2022-11-29T05:41:31.460Z,11.55
2022-11-29T05:44:15.935Z,11.30
2022-11-29T05:46:48.244Z,11.40
2022-11-29T05:49:33.516Z,11.85
2022-11-29T05:52:20.760Z,11.82
2022-11-29T05:55:17.264Z,11.55
2022-11-29T05:57:55.397Z,11.52
2022-11-29T06:00:26.919Z,11.80
2022-11-29T06:02:59.826Z,11.23
2022-11-29T06:05:40.364Z,12.82
2022-11-29T06:08:22.719Z,12.43
2022-11-29T06:11:00.964Z,12.15
2022-11-29T06:13:47.189Z,12.45
2022-11-29T06:16:32.806Z,11.23
2022-11-29T06:19:25.408Z,11.30
2022-11-29T06:22:39.902Z,12.35
2022-11-29T06:25:18.718Z,12.80
2022-11-29T06:28:02.238Z,11.82
2022-11-29T06:31:00.710Z,10.50
2022-11-29T06:33:35.498Z,12.20
2022-11-29T06:36:20.218Z,12.35
2022-11-29T06:38:49.580Z,12.70
2022-11-29T06:41:22.970Z,12.73
2022-11-29T06:43:53.323Z,12.05
2022-11-29T06:46:29.200Z,11.85
2022-11-29T06:49:02.523Z,11.00
2022-11-29T06:51:33.381Z,12.85
2022-11-29T06:54:31.871Z,10.75
2022-11-29T06:57:35.659Z,12.13
2022-11-29T07:00:12.673Z,12.75
2022-11-29T07:02:48.419Z,12.77
2022-11-29T07:05:29.426Z,12.77
2022-11-29T07:08:03.584Z,12.60
2022-11-29T07:10:36.174Z,12.77
2022-11-29T07:13:05.533Z,13.07
2022-11-29T07:15:39.370Z,13.98
2022-11-29T07:18:10.856Z,13.60
2022-11-29T07:20:59.074Z,12.07
2022-11-29T07:23:31.306Z,13.65
2022-11-29T07:26:14.980Z,14.25
2022-11-29T07:28:47.782Z,13.60
2022-11-29T07:31:25.143Z,14.30
2022-11-29T07:34:24.167Z,14.93
2022-11-29T07:37:02.139Z,14.05
2022-11-29T07:39:43.386Z,14.13
2022-11-29T07:42:26.494Z,13.20
2022-11-29T07:45:01.722Z,14.65
2022-11-29T07:47:32.576Z,14.07
2022-11-29T07:50:07.215Z,14.65
2022-11-29T07:52:33.798Z,13.75
2022-11-29T07:55:02.607Z,13.55
2022-11-29T07:57:29.150Z,13.32
2022-11-29T07:59:57.920Z,14.93
2022-11-29T08:02:31.815Z,13.57
2022-11-29T08:04:58.640Z,13.90
2022-11-29T08:07:27.832Z,14.90
2022-11-29T08:09:54.365Z,14.95
2022-11-29T08:12:23.621Z,14.02
2022-11-29T08:14:52.508Z,14.10
2022-11-29T08:17:19.110Z,13.15
2022-11-29T08:19:45.671Z,15.10
2022-11-29T08:22:14.786Z,15.80
2022-11-29T08:24:41.388Z,16.20
2022-11-29T08:27:07.973Z,14.77
2022-11-29T08:29:34.583Z,14.40
2022-11-29T08:32:06.356Z,14.35
2022-11-29T08:34:32.925Z,15.13
2022-11-29T08:37:01.799Z,14.82
2022-11-29T08:39:28.410Z,13.68
2022-11-29T08:41:55.040Z,14.65
2022-11-29T08:44:21.867Z,14.95
2022-11-29T08:47:07.160Z,14.40
2022-11-29T08:49:33.765Z,15.88
2022-11-29T08:52:18.992Z,15.35
2022-11-29T08:54:48.144Z,15.00
2022-11-29T09:00:01.259Z,12.77
2022-11-29T09:02:27.858Z,13.07
2022-11-29T09:04:56.582Z,14.25
2022-11-29T09:07:23.353Z,12.95
2022-11-29T09:09:54.825Z,14.48
2022-11-29T09:12:23.865Z,13.23
2022-11-29T09:14:53.012Z,14.55
2022-11-29T09:17:19.521Z,14.00
2022-11-29T09:19:49.139Z,14.82
2022-11-29T09:22:18.334Z,14.73
2022-11-29T09:24:47.680Z,14.25
2022-11-29T09:27:16.556Z,14.38
2022-11-29T09:29:43.088Z,15.65
2022-11-29T09:32:09.856Z,14.60
2022-11-29T09:34:36.891Z,15.40
2022-11-29T09:37:05.831Z,15.48
2022-11-29T09:39:34.628Z,16.40
2022-11-29T09:42:12.548Z,15.73
2022-11-29T09:44:48.372Z,16.80
2022-11-29T09:47:17.705Z,15.35
2022-11-29T09:50:08.832Z,17.33
2022-11-29T09:52:59.104Z,17.27
2022-11-29T09:55:47.748Z,17.08
2022-11-29T09:58:20.856Z,16.17
2022-11-29T10:01:05.355Z,15.68
2022-11-29T10:03:38.595Z,16.45
2022-11-29T10:06:24.433Z,16.17
2022-11-29T10:09:06.178Z,15.82
2022-11-29T10:12:09.922Z,15.98
2022-11-29T10:14:46.127Z,16.58
2022-11-29T10:17:21.004Z,15.55
2022-11-29T10:19:52.992Z,14.95
2022-11-29T10:22:38.295Z,15.68
2022-11-29T10:25:10.418Z,13.68
2022-11-29T10:27:40.311Z,14.73
2022-11-29T10:30:16.015Z,14.63
2022-11-29T10:32:48.533Z,13.65
2022-11-29T10:35:19.443Z,14.63
2022-11-29T10:38:22.698Z,14.15
2022-11-29T10:40:41.893Z,15.48
2022-11-29T10:43:09.100Z,14.77
2022-11-29T10:45:40.502Z,12.02
2022-11-29T10:48:11.953Z,15.48
2022-11-29T10:50:42.777Z,15.13
2022-11-29T10:53:31.543Z,12.85
2022-11-29T10:56:19.064Z,14.95
2022-11-29T10:59:03.230Z,16.08
2022-11-29T11:01:37.459Z,10.98
2022-11-29T11:04:10.911Z,17.67
2022-11-29T11:06:55.779Z,14.50
2022-11-29T11:09:42.520Z,16.52
2022-11-29T11:12:15.031Z,17.08
2022-11-29T11:14:45.751Z,15.13
2022-11-29T11:17:32.869Z,15.40
2022-11-29T11:20:08.465Z,16.85
2022-11-29T11:25:27.792Z,15.93
2022-11-29T11:27:54.518Z,15.25
2022-11-29T11:30:27.567Z,14.27
2022-11-29T11:33:24.473Z,15.75
2022-11-29T11:36:09.854Z,16.00
2022-11-29T11:38:46.994Z,15.05
2022-11-29T11:41:48.725Z,15.95
2022-11-29T11:44:49.692Z,14.98
2022-11-29T11:47:18.519Z,14.77
2022-11-29T11:49:54.613Z,13.45
2022-11-29T11:52:27.708Z,14.70
2022-11-29T11:54:57.987Z,16.30
2022-11-29T11:57:28.471Z,14.75
2022-11-29T12:00:06.486Z,16.23
2022-11-29T12:02:41.076Z,14.73
2022-11-29T12:05:18.314Z,15.32
2022-11-29T12:08:08.972Z,16.17
2022-11-29T12:10:42.470Z,15.20
2022-11-29T12:13:20.876Z,14.93
2022-11-29T12:15:51.272Z,15.60
2022-11-29T12:18:38.082Z,15.50
2022-11-29T12:21:15.078Z,15.50
2022-11-29T12:24:00.329Z,15.00
2022-11-29T12:26:56.558Z,15.40
2022-11-29T12:29:27.642Z,15.20
2022-11-29T12:32:33.258Z,15.23
2022-11-29T12:35:21.098Z,14.63
2022-11-29T12:40:33.525Z,14.52
2022-11-29T12:43:15.403Z,16.45
2022-11-29T12:45:56.007Z,15.65
2022-11-29T12:48:41.427Z,16.55
2022-11-29T12:51:26.289Z,15.32
2022-11-29T12:54:12.705Z,15.60
2022-11-29T12:56:54.389Z,15.60
2022-11-29T13:02:21.521Z,14.65
2022-11-29T13:05:22.573Z,15.25
2022-11-29T13:08:00.501Z,15.77
2022-11-29T13:11:06.164Z,15.82
2022-11-29T13:13:44.096Z,17.05
2022-11-29T13:16:48.227Z,16.15
2022-11-29T13:19:37.824Z,15.40
2022-11-29T13:22:18.885Z,16.95
2022-11-29T13:25:01.343Z,18.42
2022-11-29T13:27:40.148Z,15.18
2022-11-29T13:30:09.503Z,16.45
2022-11-29T13:35:30.868Z,17.85
2022-11-29T13:38:04.072Z,18.30
2022-11-29T13:40:56.659Z,15.68
2022-11-29T13:43:49.208Z,17.02
2022-11-29T13:47:02.544Z,16.00
2022-11-29T13:50:26.289Z,16.55
2022-11-29T13:53:19.286Z,17.05
2022-11-29T13:56:06.569Z,16.00
2022-11-29T13:58:37.557Z,17.98
2022-11-29T14:01:12.956Z,18.05
2022-11-29T14:04:00.715Z,17.05
2022-11-29T14:06:36.474Z,16.73
2022-11-29T14:09:20.767Z,15.40
2022-11-29T14:11:52.778Z,16.65
2022-11-29T14:14:24.624Z,16.08
2022-11-29T14:16:55.869Z,18.60
2022-11-29T14:19:34.910Z,16.92
2022-11-29T14:22:09.772Z,20.58
2022-11-29T14:24:38.713Z,16.17
2022-11-29T14:27:16.771Z,18.25
2022-11-29T14:29:58.771Z,17.95
2022-11-29T14:32:59.696Z,18.13
2022-11-29T14:35:37.718Z,17.38
2022-11-29T14:38:36.481Z,17.10
2022-11-29T14:41:14.035Z,17.90
2022-11-29T14:43:43.420Z,18.05
2022-11-29T14:48:55.236Z,16.73
2022-11-29T14:51:24.390Z,16.02
2022-11-29T14:54:22.120Z,18.67
2022-11-29T14:56:51.122Z,18.30
2022-11-29T14:59:45.958Z,18.38
2022-11-29T15:02:21.840Z,17.65
2022-11-29T15:04:52.161Z,19.35
2022-11-29T15:07:25.520Z,18.17
2022-11-29T15:10:00.515Z,18.88
2022-11-29T15:12:38.243Z,18.40
2022-11-29T15:15:21.730Z,19.73
2022-11-29T15:17:59.260Z,18.02
2022-11-29T15:20:55.640Z,19.05
2022-11-29T15:23:22.192Z,19.33
2022-11-29T15:25:51.676Z,18.25
2022-11-29T15:31:09.310Z,19.88
2022-11-29T15:33:41.193Z,18.15
2022-11-29T15:36:22.153Z,17.58
2022-11-29T15:38:49.900Z,18.58
2022-11-29T15:41:34.722Z,18.90
2022-11-29T15:44:06.764Z,19.00
2022-11-29T15:46:37.589Z,20.92
2022-11-29T15:49:28.417Z,19.23
2022-11-29T15:52:05.696Z,19.02
2022-11-29T15:54:34.854Z,18.95
2022-11-29T15:57:16.758Z,20.23
2022-11-29T15:59:51.141Z,19.30
2022-11-29T16:02:19.883Z,19.88
2022-11-29T16:04:51.422Z,19.17
2022-11-29T16:07:21.957Z,18.25
2022-11-29T16:09:57.653Z,20.35
2022-11-29T16:12:24.782Z,20.23
2022-11-29T16:14:56.505Z,20.63
2022-11-29T16:17:29.733Z,18.38
2022-11-29T16:20:23.508Z,19.80
2022-11-29T16:23:16.898Z,18.23
2022-11-29T16:25:56.218Z,17.45
2022-11-29T16:28:25.470Z,18.25
2022-11-29T16:30:54.957Z,18.73
2022-11-29T16:33:24.426Z,19.05
2022-11-29T16:35:51.783Z,18.75
2022-11-29T16:38:21.935Z,18.88
2022-11-29T16:41:20.101Z,17.85
2022-11-29T16:43:54.239Z,18.20
2022-11-29T16:46:20.785Z,18.83
2022-11-29T16:48:51.591Z,18.35
2022-11-29T16:51:27.089Z,20.25
2022-11-29T16:53:57.603Z,19.70
2022-11-29T16:56:29.431Z,19.42
2022-11-29T16:59:20.710Z,18.45
2022-11-29T17:01:51.344Z,20.17
2022-11-29T17:04:23.751Z,20.17
2022-11-29T17:06:52.994Z,20.67
2022-11-29T17:09:23.502Z,19.65
2022-11-29T17:11:50.236Z,21.02
2022-11-29T17:14:19.191Z,19.63
2022-11-29T17:16:52.044Z,20.45
2022-11-29T17:19:23.821Z,19.65
2022-11-29T17:21:54.051Z,20.15
2022-11-29T17:24:24.827Z,19.42
2022-11-29T17:26:51.373Z,18.45
2022-11-29T17:29:20.755Z,19.35
2022-11-29T17:34:17.050Z,17.33
2022-11-29T17:36:46.923Z,17.60
2022-11-29T17:39:20.009Z,18.02
2022-11-29T17:41:46.668Z,19.15
2022-11-29T17:44:18.172Z,17.42
2022-11-29T17:46:45.007Z,18.90
2022-11-29T17:49:18.682Z,19.23
2022-11-29T17:51:53.461Z,18.77
2022-11-29T17:54:21.692Z,16.58
2022-11-29T17:56:48.487Z,17.42
2022-11-29T17:59:21.141Z,17.83
2022-11-29T18:01:52.915Z,16.50
2022-11-29T18:04:22.157Z,19.25
2022-11-29T18:06:53.719Z,19.35
2022-11-29T18:09:20.297Z,18.85
2022-11-29T18:11:50.937Z,20.08
2022-11-29T18:14:23.730Z,19.20
2022-11-29T18:16:51.523Z,19.52
2022-11-29T18:19:22.596Z,19.15
2022-11-29T18:21:50.344Z,19.27
2022-11-29T18:24:17.365Z,19.05
2022-11-29T18:26:46.521Z,17.63
2022-11-29T18:29:13.451Z,21.38
2022-11-29T18:31:42.672Z,21.33
2022-11-29T18:34:11.035Z,19.40
2022-11-29T18:36:44.407Z,20.10
2022-11-29T18:39:15.737Z,19.27
2022-11-29T18:41:44.926Z,20.52
2022-11-29T18:44:14.415Z,20.73
2022-11-29T18:46:45.731Z,20.27
2022-11-29T18:49:15.402Z,20.27
2022-11-29T18:51:48.060Z,22.23
2022-11-29T18:54:18.336Z,19.75
2022-11-29T18:56:46.105Z,20.00
2022-11-29T18:59:16.801Z,21.35
2022-11-29T19:01:48.256Z,20.15
2022-11-29T19:04:19.283Z,20.60
2022-11-29T19:06:49.458Z,21.88
2022-11-29T19:09:21.785Z,21.52
2022-11-29T19:11:51.220Z,21.20
2022-11-29T19:16:49.401Z,19.75
2022-11-29T19:19:21.360Z,21.33
2022-11-29T19:21:48.371Z,20.23
2022-11-29T19:24:17.643Z,21.33
2022-11-29T19:26:46.410Z,19.70
2022-11-29T19:29:14.204Z,21.55
2022-11-29T19:31:41.900Z,20.15
2022-11-29T19:34:11.554Z,20.55
2022-11-29T19:36:43.042Z,20.80
2022-11-29T19:39:12.223Z,20.65
2022-11-29T19:41:39.059Z,20.27
2022-11-29T19:44:07.798Z,19.35
2022-11-29T19:46:38.992Z,20.13
2022-11-29T19:49:09.889Z,18.85
2022-11-29T19:51:37.491Z,18.63
2022-11-29T19:54:07.269Z,19.98
2022-11-29T19:56:42.321Z,20.25
2022-11-29T19:59:11.378Z,19.13
2022-11-29T20:01:41.541Z,21.10
2022-11-29T20:04:10.645Z,19.98
2022-11-29T20:06:37.368Z,19.80
2022-11-29T20:09:04.128Z,20.08
2022-11-29T20:11:30.770Z,19.88
2022-11-29T20:14:02.208Z,20.48
2022-11-29T20:16:31.708Z,18.70
2022-11-29T20:19:02.110Z,20.73
2022-11-29T20:21:32.962Z,19.42
2022-11-29T20:24:05.484Z,21.92
2022-11-29T20:26:34.359Z,19.13
2022-11-29T20:29:03.763Z,20.40
2022-11-29T20:33:58.747Z,17.90
2022-11-29T20:36:38.221Z,17.92
2022-11-29T20:39:36.931Z,18.92
2022-11-29T20:42:34.388Z,18.90
2022-11-29T20:45:02.666Z,17.40
2022-11-29T20:47:44.535Z,15.25
2022-11-29T20:50:23.119Z,15.65
2022-11-29T20:52:57.024Z,15.75
2022-11-29T20:55:23.789Z,14.65
2022-11-29T20:57:52.626Z,14.52
2022-11-29T21:00:19.871Z,13.55
2022-11-29T21:02:48.868Z,16.17
2022-11-29T21:05:16.845Z,13.10
2022-11-29T21:07:44.024Z,14.30
2022-11-29T21:10:11.126Z,17.02
2022-11-29T21:12:40.903Z,14.05
2022-11-29T21:15:11.061Z,16.08
2022-11-29T21:17:38.065Z,15.85
2022-11-29T21:20:05.743Z,14.35
2022-11-29T21:22:38.439Z,14.73
2022-11-29T21:25:40.074Z,13.52
2022-11-29T21:28:14.200Z,13.00
2022-11-29T21:30:44.124Z,13.45
2022-11-29T21:33:13.531Z,12.70
2022-11-29T21:35:40.266Z,13.80
2022-11-29T21:38:13.450Z,12.02
2022-11-29T21:40:40.157Z,15.00
2022-11-29T21:43:09.831Z,13.85
2022-11-29T21:45:39.431Z,13.23
2022-11-29T21:48:38.507Z,12.57
2022-11-29T21:51:09.233Z,13.98
2022-11-29T21:53:39.168Z,13.30
2022-11-29T21:56:10.483Z,12.15
2022-11-29T21:58:40.410Z,14.27
2022-11-29T22:01:10.486Z,12.13
2022-11-29T22:03:37.160Z,13.70
2022-11-29T22:06:09.635Z,13.05
2022-11-29T22:08:43.520Z,12.52
2022-11-29T22:11:12.606Z,14.38
2022-11-29T22:13:59.483Z,13.30
2022-11-29T22:16:26.261Z,14.02
2022-11-29T22:18:55.531Z,13.70
2022-11-29T22:21:22.438Z,13.05
2022-11-29T22:23:49.280Z,12.57
2022-11-29T22:26:16.043Z,11.95
2022-11-29T22:28:47.448Z,12.10
2022-11-29T22:31:16.488Z,13.20
2022-11-29T22:33:43.158Z,12.10
2022-11-29T22:36:14.215Z,12.10
2022-11-29T22:38:45.772Z,12.55
2022-11-29T22:41:18.678Z,13.80
2022-11-29T22:43:48.510Z,11.75
2022-11-29T22:46:23.969Z,11.20
2022-11-29T22:49:00.874Z,12.35
2022-11-29T22:51:29.021Z,12.27
2022-11-29T22:53:57.730Z,11.88
2022-11-29T22:56:27.213Z,12.85
2022-11-29T22:58:53.749Z,12.27
2022-11-29T23:01:27.669Z,12.18
2022-11-29T23:03:57.069Z,11.95
2022-11-29T23:06:28.527Z,12.90
2022-11-29T23:09:00.176Z,12.00
2022-11-29T23:11:30.574Z,11.48
2022-11-29T23:13:59.699Z,11.45
2022-11-29T23:16:29.287Z,14.07
2022-11-29T23:19:00.287Z,11.70
2022-11-29T23:21:35.965Z,11.68
2022-11-29T23:24:05.287Z,12.45
2022-11-29T23:29:09.287Z,12.15
2022-11-29T23:31:39.214Z,10.32
2022-11-29T23:34:08.334Z,11.73
2022-11-29T23:36:37.269Z,11.88
2022-11-29T23:39:09.895Z,11.13
2022-11-29T23:41:36.896Z,10.75
2022-11-29T23:44:08.773Z,11.75
2022-11-29T23:46:40.592Z,11.55
2022-11-29T23:49:07.811Z,11.18
2022-11-29T23:51:36.433Z,11.68
2022-11-29T23:54:05.381Z,11.48
2022-11-29T23:56:36.987Z,11.80
2022-11-29T23:59:08.283Z,10.38
